Chilly, Idaho
Current Conditions -  °F | °C
As of 10:47 AM on Tuesday 27 Jan 2015 (Local Time) from KSUN Reporting Station
Broken Clouds Broken Clouds  
Wind Chill: 30°   Ceiling: 15000
Heat Index: 36°   Visibility: 10mi
Dew Point: 27°   Wind: 7mph
Humidity: 70%   Direction: 310°NW
Pressure: 30.15"   Gusts: NA
Location:  43.8935°N, 113.876°W
Report Text: KSUN 271747Z 31006KT 10SM BKN150 02/M03 A3015
Loading
Personal Weather Stations






























Interactive Weather Map New forecast layout! Learn more

10-Day Weather Forecast

Advertisements
Track Severe Weather on mobile